Time;durP1;ratioP1;P1;durP2;ratioP2;P2;SDS_P1;SDS_P2;PMS_P1;PMS_P2;Temp;Humidity;BMP_temperature;BMP_pressure;BME280_temperature;BME280_humidity;BME280_pressure;Samples;Min_cycle;Max_cycle;Signal;HPM_P1;HPM_P2
2021/12/20 00:00:23;;;;;;;1.93;1.00;;;1.40;99.90;;;;;;5031722;28;20179;-54
2021/12/20 00:02:52;;;;;;;4.00;1.03;;;1.40;99.90;;;;;;5031313;28;20208;-52
2021/12/20 00:05:19;;;;;;;1.33;0.90;;;1.40;99.90;;;;;;5031140;28;20179;-51
2021/12/20 00:07:45;;;;;;;1.03;0.80;;;1.30;99.90;;;;;;5031997;28;20203;-56
2021/12/20 00:10:12;;;;;;;1.43;0.90;;;1.30;99.90;;;;;;5031701;28;20256;-72
2021/12/20 00:12:37;;;;;;;2.53;0.60;;;1.30;99.90;;;;;;5031916;28;20240;-56
2021/12/20 00:15:04;;;;;;;1.43;0.83;;;1.30;99.90;;;;;;5031651;28;20237;-56
2021/12/20 00:17:30;;;;;;;1.17;0.97;;;1.20;99.90;;;;;;5031587;28;20185;-54
2021/12/20 00:19:55;;;;;;;1.50;1.13;;;1.20;99.90;;;;;;5014082;28;20300;-54
2021/12/20 00:22:21;;;;;;;1.83;0.97;;;1.20;99.90;;;;;;5031548;28;20213;-58
2021/12/20 00:24:47;;;;;;;1.10;0.73;;;1.20;99.90;;;;;;5013353;28;20242;-58
2021/12/20 00:27:18;;;;;;;2.03;0.90;;;1.10;99.90;;;;;;5031343;28;20178;-75
2021/12/20 00:29:47;;;;;;;2.33;1.50;;;1.10;99.90;;;;;;5031792;28;20691;-55
2021/12/20 00:32:13;;;;;;;1.90;1.00;;;1.00;99.90;;;;;;5035501;28;20271;-71
2021/12/20 00:34:41;;;;;;;2.40;1.07;;;1.00;99.90;;;;;;5035243;28;20187;-56
2021/12/20 00:40:19;;;;;;;2.10;0.90;;;0.90;99.90;;;;;;5035042;28;20578;-54
2021/12/20 00:42:38;;;;;;;1.40;0.70;;;0.70;99.90;;;;;;5035302;28;20259;-56
2021/12/20 00:45:04;;;;;;;2.57;1.17;;;0.60;99.90;;;;;;5034963;28;20261;-56
2021/12/20 00:47:30;;;;;;;4.33;0.80;;;0.60;99.90;;;;;;5035019;28;20180;-54
2021/12/20 00:49:56;;;;;;;1.30;0.73;;;0.70;99.90;;;;;;5035270;28;20194;-55
2021/12/20 00:52:22;;;;;;;3.67;1.20;;;0.60;99.90;;;;;;5034604;28;20656;-54
2021/12/20 00:54:47;;;;;;;4.30;1.20;;;0.60;99.90;;;;;;5034881;28;20224;-53
2021/12/20 00:57:13;;;;;;;1.37;0.60;;;0.60;99.90;;;;;;5017485;28;20657;-59
2021/12/20 00:59:39;;;;;;;3.37;0.90;;;0.60;99.90;;;;;;5034700;28;20667;-54
2021/12/20 01:02:05;;;;;;;0.90;0.63;;;0.60;99.90;;;;;;5017127;28;20587;-54
2021/12/20 01:04:31;;;;;;;1.80;0.80;;;0.60;99.90;;;;;;5034308;28;20196;-55
2021/12/20 01:06:57;;;;;;;2.33;0.93;;;0.60;99.90;;;;;;5034958;28;20180;-55
2021/12/20 01:09:22;;;;;;;1.40;0.80;;;0.60;99.90;;;;;;5034574;28;20967;-54
2021/12/20 01:11:53;;;;;;;4.30;1.83;;;0.50;99.90;;;;;;5034619;28;20234;-60
2021/12/20 01:14:26;;;;;;;4.10;1.97;;;0.50;99.90;;;;;;5034068;28;20251;-52
2021/12/20 01:16:54;;;;;;;2.93;1.67;;;0.50;99.90;;;;;;5034664;28;20177;-54
2021/12/20 01:19:19;;;;;;;3.63;1.83;;;0.50;99.90;;;;;;5034401;28;20180;-55
2021/12/20 01:21:45;;;;;;;2.50;1.60;;;0.50;99.90;;;;;;5034755;28;20183;-53
2021/12/20 01:24:11;;;;;;;3.70;1.40;;;0.50;99.90;;;;;;5034749;28;20529;-53
2021/12/20 01:26:37;;;;;;;2.33;1.50;;;0.50;99.90;;;;;;5034344;28;20189;-54
2021/12/20 01:29:02;;;;;;;2.93;1.03;;;0.50;99.90;;;;;;5034629;28;20598;-53
2021/12/20 01:31:28;;;;;;;2.50;1.40;;;0.40;99.90;;;;;;5033944;28;20258;-53
2021/12/20 01:33:54;;;;;;;3.10;1.03;;;0.50;99.90;;;;;;5034086;28;20191;-52
2021/12/20 01:36:19;;;;;;;2.80;1.43;;;0.40;99.90;;;;;;5033772;28;20185;-55
2021/12/20 01:38:45;;;;;;;5.03;1.70;;;0.40;99.90;;;;;;5033979;28;20554;-53
2021/12/20 01:41:11;;;;;;;2.17;1.37;;;0.40;99.90;;;;;;5033122;28;20249;-52
2021/12/20 01:43:38;;;;;;;2.63;1.47;;;0.40;99.90;;;;;;5033747;28;20196;-54
2021/12/20 01:46:05;;;;;;;6.07;2.23;;;0.40;99.90;;;;;;5034061;28;20173;-56
2021/12/20 01:48:31;;;;;;;4.93;2.00;;;0.40;99.90;;;;;;5033365;28;20177;-55
2021/12/20 01:53:33;;;;;;;3.83;1.57;;;0.40;99.90;;;;;;5033878;28;20230;-55
2021/12/20 01:55:59;;;;;;;6.43;2.83;;;0.40;99.90;;;;;;5034277;28;20178;-55
2021/12/20 01:58:28;;;;;;;4.20;1.93;;;0.40;99.90;;;;;;5033833;28;20173;-56
2021/12/20 02:03:48;;;;;;;3.27;1.63;;;0.30;99.90;;;;;;5033805;28;20172;-57
2021/12/20 02:06:35;;;;;;;3.37;1.30;;;0.30;99.90;;;;;;5016021;28;20579;-55
2021/12/20 02:09:14;;;;;;;2.47;1.40;;;0.30;99.90;;;;;;5034474;28;20172;-58
2021/12/20 02:11:42;;;;;;;4.20;1.87;;;0.30;99.90;;;;;;5017918;28;20557;-56
2021/12/20 02:14:09;;;;;;;3.23;1.77;;;0.30;99.90;;;;;;5033449;28;20228;-55
2021/12/20 02:16:36;;;;;;;2.70;1.10;;;0.30;99.90;;;;;;5033139;28;20188;-55
2021/12/20 02:19:12;;;;;;;2.10;1.03;;;0.30;99.90;;;;;;5033640;28;20192;-55
2021/12/20 02:21:39;;;;;;;2.43;1.00;;;0.40;99.90;;;;;;5033294;28;20180;-54
2021/12/20 02:24:05;;;;;;;2.57;1.20;;;0.40;99.90;;;;;;5033405;28;20185;-55
2021/12/20 02:26:31;;;;;;;4.50;1.63;;;0.40;99.90;;;;;;5033225;28;20185;-56
2021/12/20 02:29:03;;;;;;;4.60;1.10;;;0.50;99.90;;;;;;5015777;28;20197;-56
2021/12/20 02:37:14;;;;;;;3.03;1.27;;;0.50;99.90;;;;;;5033355;28;20682;-55
2021/12/20 02:39:40;;;;;;;1.30;0.90;;;0.60;99.90;;;;;;5032966;28;20168;-56
2021/12/20 02:42:06;;;;;;;2.30;0.90;;;0.60;99.90;;;;;;5033127;28;20194;-55
2021/12/20 02:44:32;;;;;;;1.80;0.90;;;0.60;99.90;;;;;;5032718;28;20203;-67
2021/12/20 02:49:27;;;;;;;2.17;1.20;;;0.60;99.90;;;;;;5032769;28;20181;-53
2021/12/20 02:51:57;;;;;;;4.03;1.00;;;0.60;99.90;;;;;;5032689;28;20216;-55
2021/12/20 02:54:24;;;;;;;2.63;1.57;;;0.60;99.90;;;;;;5032234;28;20251;-56
2021/12/20 02:56:50;;;;;;;3.60;1.00;;;0.60;99.90;;;;;;5032910;28;20181;-55
2021/12/20 02:59:17;;;;;;;1.57;1.20;;;0.60;99.90;;;;;;5032573;28;20219;-56
2021/12/20 03:01:47;;;;;;;3.23;1.40;;;0.50;99.90;;;;;;5032413;28;20530;-59
2021/12/20 03:04:13;;;;;;;2.77;1.37;;;0.40;99.90;;;;;;5032548;28;20211;-55
2021/12/20 03:06:41;;;;;;;3.30;1.77;;;0.40;99.90;;;;;;5032610;28;20238;-56
2021/12/20 03:09:11;;;;;;;7.80;2.00;;;0.40;99.90;;;;;;5032335;28;20626;-56
2021/12/20 03:11:37;;;;;;;6.33;3.00;;;0.30;99.90;;;;;;5031994;28;20204;-56
2021/12/20 03:14:17;;;;;;;3.53;1.87;;;0.30;99.90;;;;;;5032079;28;20319;-57
2021/12/20 03:16:43;;;;;;;3.13;1.63;;;0.20;99.90;;;;;;5014574;28;20591;-57
2021/12/20 03:19:09;;;;;;;6.60;2.27;;;0.20;99.90;;;;;;5032186;28;20188;-58
2021/12/20 03:21:35;;;;;;;4.03;2.47;;;0.20;99.90;;;;;;5031645;28;20577;-58
2021/12/20 03:24:01;;;;;;;2.87;2.13;;;0.20;99.90;;;;;;5032344;28;20184;-57
2021/12/20 03:26:27;;;;;;;3.27;2.30;;;0.20;99.90;;;;;;5031968;28;20284;-57
2021/12/20 03:28:52;;;;;;;4.17;2.50;;;0.20;99.90;;;;;;5032035;28;20662;-57
2021/12/20 03:31:19;;;;;;;7.13;2.70;;;0.20;99.90;;;;;;5032002;28;20605;-61
2021/12/20 03:33:45;;;;;;;6.03;2.70;;;0.20;99.90;;;;;;5031793;28;20206;-59
2021/12/20 03:36:11;;;;;;;5.93;2.50;;;0.20;99.90;;;;;;5031610;28;20275;-59
2021/12/20 03:38:37;;;;;;;5.27;2.17;;;0.20;99.90;;;;;;5031853;28;20187;-57
2021/12/20 03:41:03;;;;;;;3.77;1.40;;;0.20;99.90;;;;;;5032142;28;20541;-57
2021/12/20 03:43:31;;;;;;;2.97;1.63;;;0.20;99.90;;;;;;5030491;28;20225;-57
2021/12/20 03:46:04;;;;;;;3.97;2.10;;;0.10;99.90;;;;;;5014775;28;20177;-58
2021/12/20 03:48:30;;;;;;;3.70;1.93;;;0.10;99.90;;;;;;5031670;28;20714;-60
2021/12/20 03:50:57;;;;;;;2.73;1.43;;;0.10;99.90;;;;;;5031812;28;20560;-59
2021/12/20 03:53:23;;;;;;;5.73;2.00;;;0.10;99.90;;;;;;5031633;28;20632;-58
2021/12/20 03:55:48;;;;;;;4.53;1.20;;;0.10;99.90;;;;;;5031656;28;20191;-57
2021/12/20 03:58:14;;;;;;;5.80;1.10;;;0.10;99.90;;;;;;5031845;28;20357;-58
2021/12/20 04:00:40;;;;;;;3.10;1.77;;;0.10;99.90;;;;;;5031478;28;20201;-59
2021/12/20 04:03:11;;;;;;;1.87;1.30;;;0.00;99.90;;;;;;5031992;28;20190;-59
2021/12/20 04:05:37;;;;;;;4.37;1.90;;;0.00;99.90;;;;;;5033531;28;20179;-58
2021/12/20 04:08:03;;;;;;;1.93;1.37;;;-0.10;99.90;;;;;;5018033;28;20184;-58
2021/12/20 04:10:29;;;;;;;2.60;1.77;;;-0.10;99.90;;;;;;5035408;28;20179;-59
2021/12/20 04:12:54;;;;;;;2.60;1.50;;;-0.20;99.90;;;;;;5035620;28;20187;-58
2021/12/20 04:15:20;;;;;;;3.50;1.43;;;-0.20;99.90;;;;;;5035881;28;20213;-60
2021/12/20 04:17:46;;;;;;;5.00;1.80;;;-0.30;99.90;;;;;;5017388;28;20197;-57
2021/12/20 04:20:12;;;;;;;6.60;2.37;;;-0.30;99.90;;;;;;5035406;28;20179;-59
2021/12/20 04:22:38;;;;;;;4.63;1.80;;;-0.40;99.90;;;;;;5034784;28;20182;-58
2021/12/20 04:25:04;;;;;;;3.60;2.00;;;-0.40;99.90;;;;;;5017569;28;20546;-56
2021/12/20 04:27:30;;;;;;;4.53;2.30;;;-0.50;99.90;;;;;;5017356;28;20182;-58
2021/12/20 04:29:56;;;;;;;4.33;2.30;;;-0.50;99.90;;;;;;5035675;28;20194;-60
2021/12/20 04:32:22;;;;;;;4.57;2.60;;;-0.50;99.90;;;;;;5017291;28;20688;-61
2021/12/20 04:34:48;;;;;;;5.00;2.50;;;-0.50;99.90;;;;;;5034811;28;20208;-56
2021/12/20 04:37:14;;;;;;;6.10;2.30;;;-0.50;99.90;;;;;;5017849;28;20646;-58
2021/12/20 04:39:40;;;;;;;2.47;1.63;;;-0.50;99.90;;;;;;5034930;28;20198;-58
2021/12/20 04:42:08;;;;;;;6.07;2.90;;;-0.50;99.90;;;;;;5017519;28;20202;-61
2021/12/20 04:44:34;;;;;;;4.47;2.07;;;-0.60;99.90;;;;;;5034617;28;20212;-59
2021/12/20 04:47:01;;;;;;;6.30;2.93;;;-0.60;99.90;;;;;;5017532;28;20631;-57
2021/12/20 04:49:27;;;;;;;5.27;2.53;;;-0.60;99.90;;;;;;5034510;28;20269;-74
2021/12/20 04:51:54;;;;;;;5.67;3.13;;;-0.50;99.90;;;;;;5034840;28;20203;-60
2021/12/20 04:54:21;;;;;;;5.70;2.53;;;-0.50;99.90;;;;;;5034413;28;20195;-58
2021/12/20 04:56:47;;;;;;;4.83;2.47;;;-0.30;99.90;;;;;;5034333;28;20322;-60
2021/12/20 04:59:13;;;;;;;5.30;2.83;;;-0.30;99.90;;;;;;5034702;28;20696;-60
2021/12/20 05:01:39;;;;;;;5.90;2.80;;;-0.30;99.90;;;;;;5034257;28;20275;-59
2021/12/20 05:04:05;;;;;;;6.67;3.10;;;-0.30;99.90;;;;;;5034464;28;20268;-59
2021/12/20 05:06:33;;;;;;;3.63;2.10;;;-0.30;99.90;;;;;;5034411;28;20183;-60
2021/12/20 05:08:59;;;;;;;5.43;2.70;;;-0.30;99.90;;;;;;5034604;28;20227;-55
2021/12/20 05:11:28;;;;;;;4.50;2.47;;;-0.40;99.90;;;;;;5034340;28;20214;-60
2021/12/20 05:13:54;;;;;;;4.87;2.67;;;-0.40;99.90;;;;;;5017074;28;20234;-60
2021/12/20 05:16:20;;;;;;;4.17;2.60;;;-0.50;99.90;;;;;;5033963;28;20183;-57
2021/12/20 05:18:46;;;;;;;6.10;2.67;;;-0.50;99.90;;;;;;5033892;28;20184;-59
2021/12/20 05:21:12;;;;;;;6.57;3.13;;;-0.60;99.90;;;;;;5034250;28;20187;-58
2021/12/20 05:23:38;;;;;;;7.87;3.87;;;-0.50;99.90;;;;;;5033388;28;20184;-59
2021/12/20 05:26:04;;;;;;;9.40;3.67;;;-0.40;99.90;;;;;;5034827;28;20207;-61
2021/12/20 05:28:30;;;;;;;9.17;3.77;;;-0.40;99.90;;;;;;5034093;28;20661;-70
2021/12/20 05:30:55;;;;;;;7.40;3.57;;;-0.40;99.90;;;;;;5033628;28;20567;-61
2021/12/20 05:33:22;;;;;;;5.17;2.50;;;-0.30;99.90;;;;;;5033393;28;20187;-59
2021/12/20 05:35:48;;;;;;;7.10;3.00;;;-0.30;99.90;;;;;;5033304;28;20210;-60
2021/12/20 05:38:14;;;;;;;8.03;3.77;;;-0.30;99.90;;;;;;5033176;28;20519;-61
2021/12/20 05:40:41;;;;;;;5.10;3.20;;;-0.20;99.90;;;;;;5033315;28;20183;-61
2021/12/20 05:43:07;;;;;;;8.53;3.43;;;-0.10;99.90;;;;;;5033255;28;20176;-59
2021/12/20 05:45:33;;;;;;;3.97;2.20;;;-0.10;99.90;;;;;;5032761;28;20619;-60
2021/12/20 05:47:59;;;;;;;8.20;3.67;;;-0.10;99.90;;;;;;5033410;28;20235;-64
2021/12/20 05:50:25;;;;;;;6.80;3.13;;;-0.10;99.90;;;;;;5032876;28;20591;-61
2021/12/20 05:52:51;;;;;;;5.70;3.30;;;0.00;99.90;;;;;;5014501;28;20198;-60
2021/12/20 05:55:18;;;;;;;5.87;2.77;;;0.00;99.90;;;;;;5032897;28;20183;-61
2021/12/20 05:57:45;;;;;;;7.57;3.87;;;0.00;99.90;;;;;;5032735;28;20176;-61
2021/12/20 06:00:18;;;;;;;10.07;5.03;;;0.00;99.90;;;;;;5032592;28;20203;-60
2021/12/20 06:02:46;;;;;;;4.40;2.60;;;0.00;99.90;;;;;;5032667;28;20170;-64
2021/12/20 06:05:12;;;;;;;2.97;1.77;;;0.00;99.90;;;;;;5015321;28;20233;-61
2021/12/20 06:07:41;;;;;;;8.43;2.60;;;0.00;99.90;;;;;;5032243;28;20175;-60
2021/12/20 06:10:10;;;;;;;5.40;2.80;;;-0.10;99.90;;;;;;5033257;28;20655;-60
2021/12/20 06:12:35;;;;;;;6.47;3.00;;;-0.10;99.90;;;;;;5032331;28;20242;-61
2021/12/20 06:15:03;;;;;;;4.50;2.50;;;0.00;99.90;;;;;;5014632;28;20656;-60
2021/12/20 06:17:28;;;;;;;5.60;3.10;;;0.00;99.90;;;;;;5033037;28;20179;-62
2021/12/20 06:19:54;;;;;;;6.53;3.03;;;0.10;99.90;;;;;;5032310;28;20184;-61
2021/12/20 06:22:20;;;;;;;8.20;3.60;;;0.10;99.90;;;;;;5014696;28;20346;-64
2021/12/20 06:24:46;;;;;;;6.87;3.40;;;0.10;99.90;;;;;;5032767;28;20182;-61
2021/12/20 06:27:12;;;;;;;7.80;2.70;;;0.20;99.90;;;;;;5032006;28;20183;-61
2021/12/20 06:29:37;;;;;;;7.27;2.90;;;0.20;99.90;;;;;;5032376;28;20187;-66
2021/12/20 06:32:03;;;;;;;7.83;3.33;;;0.20;99.90;;;;;;5015056;28;20218;-62
2021/12/20 06:34:29;;;;;;;8.80;3.17;;;0.20;99.90;;;;;;5033127;28;20187;-66
2021/12/20 06:36:55;;;;;;;6.77;3.57;;;0.20;99.90;;;;;;5014044;28;20254;-66
2021/12/20 06:39:23;;;;;;;7.47;3.90;;;0.30;99.90;;;;;;5031363;28;20216;-65
2021/12/20 06:41:50;;;;;;;8.03;4.17;;;0.30;99.90;;;;;;5031329;28;20215;-69
2021/12/20 06:44:16;;;;;;;7.53;4.37;;;0.40;99.90;;;;;;5018185;28;20191;-65
2021/12/20 06:46:42;;;;;;;7.80;4.77;;;0.40;99.90;;;;;;5032389;28;20577;-67
2021/12/20 06:49:10;;;;;;;9.53;4.43;;;0.40;99.90;;;;;;5014311;28;20186;-67
2021/12/20 06:51:42;;;;;;;9.00;4.83;;;0.40;99.90;;;;;;5031762;28;20217;-67
2021/12/20 06:54:14;;;;;;;11.37;4.30;;;0.40;99.90;;;;;;5032290;28;20185;-66
2021/12/20 06:56:40;;;;;;;6.80;3.23;;;0.40;99.90;;;;;;5030279;28;20184;-68
2021/12/20 06:59:06;;;;;;;6.33;3.40;;;0.40;99.90;;;;;;5022677;28;20186;-67
2021/12/20 07:01:33;;;;;;;9.20;4.00;;;0.40;99.90;;;;;;5017525;28;20205;-62
2021/12/20 07:04:01;;;;;;;7.10;3.50;;;0.50;99.90;;;;;;5012548;28;20180;-63
2021/12/20 07:06:26;;;;;;;8.07;3.67;;;0.40;99.90;;;;;;5011972;28;20563;-65
2021/12/20 07:08:52;;;;;;;6.00;3.40;;;0.40;99.90;;;;;;5011920;28;20622;-62
2021/12/20 07:11:18;;;;;;;4.63;2.93;;;0.50;99.90;;;;;;4994693;28;20212;-63
2021/12/20 07:13:44;;;;;;;7.50;3.30;;;0.50;99.90;;;;;;4993902;28;20331;-63
2021/12/20 07:16:09;;;;;;;5.20;2.57;;;0.50;99.90;;;;;;5025831;28;20526;-61
2021/12/20 07:18:35;;;;;;;4.63;2.63;;;0.60;99.90;;;;;;5021070;28;20318;-69
2021/12/20 07:21:02;;;;;;;6.03;3.10;;;0.70;99.90;;;;;;5029474;28;20201;-61
2021/12/20 07:23:27;;;;;;;6.57;2.97;;;0.80;99.90;;;;;;5031047;28;20249;-62
2021/12/20 07:25:54;;;;;;;6.60;3.20;;;0.90;99.90;;;;;;5031637;28;20197;-62
2021/12/20 07:28:20;;;;;;;8.50;3.47;;;0.90;99.90;;;;;;5031214;28;20255;-63
2021/12/20 07:30:46;;;;;;;6.43;3.03;;;1.00;99.90;;;;;;5031226;28;20649;-62
2021/12/20 07:33:12;;;;;;;9.73;3.37;;;0.90;99.90;;;;;;5031311;28;20191;-61
2021/12/20 07:35:40;;;;;;;6.67;3.33;;;0.90;99.90;;;;;;5012595;28;20552;-62
2021/12/20 07:38:10;;;;;;;2.83;1.27;;;0.90;99.90;;;;;;5031612;28;20200;-62
2021/12/20 07:40:36;;;;;;;6.73;3.30;;;0.80;99.90;;;;;;5029516;28;20257;-61
2021/12/20 07:43:02;;;;;;;3.03;1.70;;;0.80;99.90;;;;;;5030533;28;20661;-63
2021/12/20 07:45:28;;;;;;;3.93;1.87;;;0.70;99.90;;;;;;5011132;28;20183;-62
2021/12/20 07:47:54;;;;;;;4.27;2.30;;;0.70;99.90;;;;;;5019178;28;20724;-62
2021/12/20 07:50:21;;;;;;;4.80;1.80;;;0.60;99.90;;;;;;5030885;28;20198;-61
2021/12/20 07:52:47;;;;;;;1.47;1.07;;;0.60;99.90;;;;;;5030591;28;20663;-62
2021/12/20 07:55:13;;;;;;;4.27;2.20;;;0.60;99.90;;;;;;5030617;28;20239;-59
2021/12/20 07:57:39;;;;;;;6.33;2.03;;;0.60;99.90;;;;;;5012971;28;20204;-59
2021/12/20 08:00:07;;;;;;;2.50;1.37;;;0.60;99.90;;;;;;5031028;28;20178;-62
2021/12/20 08:02:32;;;;;;;4.63;2.33;;;0.70;99.90;;;;;;5030490;28;20655;-62
2021/12/20 08:04:58;;;;;;;7.40;3.40;;;0.90;99.90;;;;;;5030054;28;20273;-57
2021/12/20 08:07:24;;;;;;;5.30;2.20;;;1.00;99.90;;;;;;5030497;28;20188;-61
2021/12/20 08:09:50;;;;;;;3.13;1.67;;;1.00;99.90;;;;;;5029365;28;20190;-62
2021/12/20 08:12:18;;;;;;;9.10;3.17;;;1.10;99.90;;;;;;5012545;28;20211;-61
2021/12/20 08:14:44;;;;;;;8.13;2.17;;;1.30;99.90;;;;;;5029830;28;20236;-61
2021/12/20 08:17:10;;;;;;;4.97;2.00;;;1.40;99.90;;;;;;5029988;28;20189;-62
2021/12/20 08:19:36;;;;;;;4.47;2.03;;;2.10;99.90;;;;;;5030401;28;20643;-71
2021/12/20 08:22:02;;;;;;;4.23;2.07;;;2.70;99.90;;;;;;5030752;28;20610;-61
2021/12/20 08:24:27;;;;;;;3.27;1.60;;;2.40;99.90;;;;;;5012632;28;20270;-61
2021/12/20 08:26:54;;;;;;;8.63;2.00;;;2.00;99.90;;;;;;5029923;28;20280;-63
2021/12/20 08:29:23;;;;;;;3.83;1.90;;;1.80;99.90;;;;;;5026506;28;20298;-65
2021/12/20 08:31:48;;;;;;;2.67;1.30;;;1.70;99.90;;;;;;5010702;28;20280;-64
2021/12/20 08:34:14;;;;;;;5.97;1.70;;;1.50;99.90;;;;;;5011024;28;20187;-60
2021/12/20 08:36:40;;;;;;;5.13;2.10;;;1.50;99.90;;;;;;4992637;28;20222;-62
2021/12/20 08:39:06;;;;;;;5.80;2.23;;;1.50;99.90;;;;;;4993871;28;20178;-61
2021/12/20 08:41:32;;;;;;;2.00;1.70;;;1.50;99.90;;;;;;5010493;28;20229;-63
2021/12/20 08:43:58;;;;;;;4.23;2.03;;;1.50;99.90;;;;;;5010871;28;20270;-62
2021/12/20 08:46:24;;;;;;;3.73;1.67;;;1.40;99.90;;;;;;5019516;28;20223;-64
2021/12/20 08:48:51;;;;;;;6.90;2.23;;;1.30;99.90;;;;;;5030371;28;20239;-60
2021/12/20 08:51:17;;;;;;;4.87;2.20;;;1.30;99.90;;;;;;5026826;28;20229;-61
2021/12/20 08:53:43;;;;;;;3.20;1.50;;;1.30;99.90;;;;;;5014014;28;20520;-61
2021/12/20 08:56:09;;;;;;;3.43;1.73;;;1.30;99.90;;;;;;4996591;28;20278;-60
2021/12/20 08:58:35;;;;;;;4.40;2.00;;;1.40;99.90;;;;;;5014067;28;20479;-64
2021/12/20 09:01:01;;;;;;;8.63;2.17;;;1.50;99.90;;;;;;4996742;28;20273;-66
2021/12/20 09:03:28;;;;;;;5.00;2.43;;;1.70;99.90;;;;;;5013712;28;20190;-61
2021/12/20 09:05:54;;;;;;;3.10;1.50;;;1.90;99.90;;;;;;5014383;28;20191;-61
2021/12/20 09:08:22;;;;;;;3.63;2.10;;;1.90;99.90;;;;;;5014057;28;20294;-68
2021/12/20 09:10:48;;;;;;;5.93;2.00;;;1.80;99.90;;;;;;5014074;28;20536;-73
2021/12/20 09:13:15;;;;;;;4.00;1.47;;;1.80;99.90;;;;;;4979872;28;20245;-72
2021/12/20 09:15:42;;;;;;;6.07;2.00;;;1.60;99.90;;;;;;5025017;28;20705;-73
2021/12/20 09:18:11;;;;;;;4.07;2.27;;;1.70;99.90;;;;;;4996444;28;20192;-74
2021/12/20 09:20:38;;;;;;;4.40;1.83;;;1.60;99.90;;;;;;5024242;28;20194;-68
2021/12/20 09:23:07;;;;;;;4.40;2.07;;;1.60;99.90;;;;;;4999032;28;20647;-68
2021/12/20 09:25:37;;;;;;;5.47;1.77;;;1.70;99.90;;;;;;5032688;28;20571;-66
2021/12/20 09:28:08;;;;;;;5.90;1.60;;;1.80;99.90;;;;;;5033798;28;20163;-68
2021/12/20 09:30:35;;;;;;;4.23;2.20;;;2.00;99.90;;;;;;5032744;28;20178;-61
2021/12/20 09:33:04;;;;;;;3.23;1.60;;;2.10;99.90;;;;;;5015743;28;20193;-61
2021/12/20 09:35:30;;;;;;;8.60;2.67;;;2.10;99.90;;;;;;5015328;28;20471;-62
2021/12/20 09:37:56;;;;;;;10.13;2.83;;;2.10;99.90;;;;;;5033407;28;20187;-61
2021/12/20 09:40:32;;;;;;;8.37;2.20;;;2.10;99.90;;;;;;5015324;28;20187;-62
2021/12/20 09:43:01;;;;;;;3.57;1.87;;;2.10;99.90;;;;;;5032777;28;20248;-60
2021/12/20 09:45:28;;;;;;;10.70;2.43;;;2.00;99.90;;;;;;5030778;28;20175;-61
2021/12/20 09:47:54;;;;;;;3.50;1.57;;;1.90;99.90;;;;;;4995956;28;20211;-61
2021/12/20 09:50:19;;;;;;;3.47;2.20;;;1.90;99.90;;;;;;5020646;28;20183;-69
2021/12/20 09:52:46;;;;;;;3.67;1.90;;;1.90;99.90;;;;;;5032845;28;20276;-60
2021/12/20 09:55:15;;;;;;;3.40;1.30;;;1.90;99.90;;;;;;5015412;28;20183;-62
2021/12/20 09:57:42;;;;;;;4.13;1.57;;;1.90;99.90;;;;;;5014100;28;20272;-62
2021/12/20 10:00:11;;;;;;;3.43;1.60;;;1.90;99.90;;;;;;5033430;28;20266;-61
2021/12/20 10:02:36;;;;;;;11.50;1.80;;;1.90;99.90;;;;;;4997277;28;20587;-60
2021/12/20 10:05:03;;;;;;;11.90;2.37;;;2.00;99.90;;;;;;5015084;28;20175;-62
2021/12/20 10:07:29;;;;;;;6.43;2.40;;;2.10;99.90;;;;;;5014777;28;20182;-64
2021/12/20 10:09:56;;;;;;;2.17;1.50;;;2.30;99.90;;;;;;5032517;28;20191;-67
2021/12/20 10:12:26;;;;;;;1.60;0.83;;;2.30;99.90;;;;;;5032386;28;20207;-65
2021/12/20 10:15:06;;;;;;;3.93;1.40;;;2.30;99.90;;;;;;5031474;28;20731;-61
2021/12/20 10:17:53;;;;;;;11.73;2.33;;;2.30;99.90;;;;;;5030878;28;20183;-66
2021/12/20 10:20:23;;;;;;;2.50;1.33;;;2.40;99.90;;;;;;5031279;28;20190;-65
2021/12/20 10:22:50;;;;;;;6.90;1.50;;;2.40;99.90;;;;;;5031276;28;20191;-63
2021/12/20 10:25:25;;;;;;;8.17;1.37;;;2.50;99.90;;;;;;5031474;28;20178;-63
2021/12/20 10:27:52;;;;;;;5.17;1.43;;;2.40;99.90;;;;;;5031053;28;20170;-61
2021/12/20 10:30:22;;;;;;;6.43;1.33;;;2.50;99.90;;;;;;5032450;28;20631;-60
2021/12/20 10:32:48;;;;;;;9.40;1.90;;;2.50;99.90;;;;;;5032545;28;20207;-61
2021/12/20 10:35:26;;;;;;;20.03;2.77;;;2.50;99.90;;;;;;5032098;28;20182;-64
2021/12/20 10:37:58;;;;;;;3.37;1.20;;;2.60;99.90;;;;;;5032422;28;20179;-62
2021/12/20 10:40:24;;;;;;;1.20;0.70;;;2.40;99.90;;;;;;5031850;28;20199;-63
2021/12/20 10:42:52;;;;;;;3.83;1.50;;;2.30;99.90;;;;;;5032062;28;20189;-64
2021/12/20 10:45:20;;;;;;;3.43;1.57;;;2.20;99.90;;;;;;5013625;28;20190;-64
2021/12/20 10:47:48;;;;;;;5.80;0.97;;;2.10;99.90;;;;;;5026540;28;20192;-61
2021/12/20 10:50:27;;;;;;;6.00;1.33;;;2.10;99.90;;;;;;5032719;28;20179;-62
2021/12/20 10:53:09;;;;;;;21.87;2.87;;;2.00;99.90;;;;;;5014301;28;20683;-63
2021/12/20 10:55:37;;;;;;;16.73;3.13;;;2.10;99.90;;;;;;5031613;28;20258;-68
2021/12/20 10:58:29;;;;;;;3.13;0.73;;;2.20;99.90;;;;;;5031249;28;20206;-64
2021/12/20 11:01:15;;;;;;;3.70;1.27;;;2.20;99.90;;;;;;5031173;28;20662;-68
2021/12/20 11:03:44;;;;;;;4.77;1.67;;;2.20;99.90;;;;;;5030867;28;20175;-64
2021/12/20 11:09:05;;;;;;;3.07;1.40;;;2.10;99.90;;;;;;5031575;28;20185;-63
2021/12/20 11:11:32;;;;;;;4.90;1.63;;;2.00;99.90;;;;;;5015759;28;20254;-62
2021/12/20 11:13:59;;;;;;;8.70;2.27;;;1.90;99.90;;;;;;5012305;28;21039;-63
2021/12/20 11:16:40;;;;;;;8.47;2.00;;;1.90;99.90;;;;;;5020573;28;20246;-64
2021/12/20 11:19:25;;;;;;;3.13;1.30;;;1.80;99.90;;;;;;5012189;28;20236;-67
2021/12/20 11:21:55;;;;;;;4.07;1.93;;;1.80;99.90;;;;;;5027371;28;20191;-65
2021/12/20 11:24:27;;;;;;;9.03;1.93;;;1.70;99.90;;;;;;5032038;28;20555;-70
2021/12/20 11:26:54;;;;;;;6.33;2.10;;;1.70;99.90;;;;;;5013870;28;20233;-62
2021/12/20 11:29:21;;;;;;;5.03;1.70;;;1.80;99.90;;;;;;5030437;28;20178;-65
2021/12/20 11:31:48;;;;;;;3.83;1.60;;;1.70;99.90;;;;;;5031123;28;20470;-63
2021/12/20 11:34:14;;;;;;;5.63;2.13;;;1.80;99.90;;;;;;5031636;28;20260;-62
2021/12/20 11:36:40;;;;;;;4.37;1.57;;;1.90;99.90;;;;;;5029915;28;20580;-62
2021/12/20 11:39:07;;;;;;;5.03;2.13;;;1.90;99.90;;;;;;5030569;28;20198;-64
2021/12/20 11:41:34;;;;;;;13.10;2.43;;;2.00;99.90;;;;;;5013726;28;20197;-61
2021/12/20 11:44:03;;;;;;;8.63;2.13;;;2.10;99.90;;;;;;5012822;28;20584;-61
2021/12/20 11:47:04;;;;;;;6.70;2.13;;;2.20;99.90;;;;;;5030461;28;20190;-61
2021/12/20 11:49:31;;;;;;;18.17;2.30;;;2.20;99.90;;;;;;4981053;28;20634;-62
2021/12/20 11:52:18;;;;;;;6.40;2.13;;;2.20;99.90;;;;;;5030802;28;20225;-61
2021/12/20 11:54:48;;;;;;;9.17;1.90;;;2.20;99.90;;;;;;5030872;28;20652;-63
2021/12/20 11:57:32;;;;;;;6.77;2.70;;;2.20;99.90;;;;;;5030067;28;20278;-62
2021/12/20 12:00:00;;;;;;;11.97;3.20;;;2.30;99.90;;;;;;5030372;28;20191;-64
2021/12/20 12:02:32;;;;;;;19.43;3.57;;;2.60;99.90;;;;;;5012304;28;20274;-62
2021/12/20 12:05:14;;;;;;;9.37;2.47;;;2.90;99.90;;;;;;5030847;28;20260;-62
2021/12/20 12:07:41;;;;;;;4.80;1.93;;;2.90;99.90;;;;;;5030265;28;20178;-61
2021/12/20 12:10:16;;;;;;;3.70;1.40;;;2.80;99.90;;;;;;5030195;28;20273;-62
2021/12/20 12:12:44;;;;;;;3.63;1.50;;;2.60;99.90;;;;;;5030433;28;20260;-62
2021/12/20 12:15:20;;;;;;;4.70;1.37;;;2.50;99.90;;;;;;5018924;28;20232;-62
2021/12/20 12:17:54;;;;;;;2.10;1.10;;;2.30;99.90;;;;;;5010896;28;20601;-63
2021/12/20 12:20:53;;;;;;;1.90;0.90;;;2.20;99.90;;;;;;5011615;28;20179;-62
2021/12/20 12:23:24;;;;;;;2.53;1.30;;;2.00;99.90;;;;;;4997786;28;20202;-63
2021/12/20 12:25:53;;;;;;;0.90;0.60;;;1.90;99.90;;;;;;5012119;28;20233;-62
2021/12/20 12:28:22;;;;;;;2.37;1.30;;;1.90;99.90;;;;;;5015745;28;20282;-65
2021/12/20 12:31:07;;;;;;;0.93;0.73;;;1.90;99.90;;;;;;5031213;28;20544;-67
2021/12/20 12:33:37;;;;;;;3.57;1.00;;;1.70;99.90;;;;;;5034354;28;20269;-62
2021/12/20 12:36:08;;;;;;;5.67;1.27;;;1.60;99.90;;;;;;5034777;28;20204;-61
2021/12/20 12:38:57;;;;;;;2.30;1.20;;;1.50;99.90;;;;;;5034517;28;20174;-60
2021/12/20 12:41:28;;;;;;;2.67;1.40;;;1.40;99.90;;;;;;5033902;28;20185;-69
2021/12/20 12:44:07;;;;;;;9.33;1.60;;;1.50;99.90;;;;;;5032712;28;20239;-65
2021/12/20 12:46:36;;;;;;;10.00;2.07;;;1.60;99.90;;;;;;5033731;28;20187;-60
2021/12/20 12:49:20;;;;;;;3.50;1.00;;;1.60;99.90;;;;;;5034306;28;20185;-60
2021/12/20 12:51:50;;;;;;;4.77;1.40;;;1.60;99.90;;;;;;5033838;28;20220;-61
2021/12/20 12:54:40;;;;;;;3.00;1.43;;;1.40;99.90;;;;;;5017678;28;20189;-62
2021/12/20 12:57:08;;;;;;;12.93;1.63;;;1.30;99.90;;;;;;5034034;28;20178;-61
2021/12/20 12:59:36;;;;;;;3.87;1.53;;;1.20;99.90;;;;;;5033346;28;20189;-63
2021/12/20 13:02:20;;;;;;;2.03;1.10;;;1.10;99.90;;;;;;5031765;28;20652;-62
2021/12/20 13:04:48;;;;;;;10.13;1.80;;;1.00;99.90;;;;;;5031916;28;20169;-61
2021/12/20 13:07:18;;;;;;;2.63;1.30;;;1.00;99.90;;;;;;5032412;28;20174;-64
2021/12/20 13:09:46;;;;;;;5.17;1.33;;;1.00;99.90;;;;;;5031656;28;20177;-62
2021/12/20 13:12:22;;;;;;;4.60;1.80;;;1.00;99.90;;;;;;5031935;28;20267;-63
2021/12/20 13:15:09;;;;;;;6.50;1.90;;;1.10;99.90;;;;;;5023034;28;20221;-61
2021/12/20 13:17:38;;;;;;;5.50;1.60;;;1.20;99.90;;;;;;5016699;28;20193;-63
2021/12/20 13:20:11;;;;;;;6.03;1.80;;;1.20;99.90;;;;;;5016834;28;20268;-61